Ana Sayfa
METAR-TAF:

METAR-TAF

Havaalanları :

Bandar Lenge Havaalanı

Bandar Lenge, İran

Enlem: 26-35N, Boylam: 054-50E, yükseklik: 14 m

Güncel hava durumu gözlemi

Rapor saat 04:00 UTC de 40 dakika önce yapıldı.
Rüzgar doğudan 10 kt
Sıcaklık 27°C
Nem 66%
Basınç 1010 hPa
Görüş mesafesi: 5000 m
Toz Pusu

METAR: OIBL 190400Z 10010KT 5000 HZ NSC 27/20 Q1010

Saat: 09:10 (04:40 UTC)


TAF: eksik

4.000'den fazla havaalanı için hava durumu gözlemleri ve tahminleri (METAR ve TAF raporları).

Kullanılabilir istasyonlar harita üzerinde sarı ve kırmızı noktalarla gösterilir.

İstasyonun adını görmek için fareyi noktanın üzerinde gezdirin.

Sonrasında hava gözlem ve tahminlerini görmek için tıklayın.

Haritayı değiştirmek için: yaklaştırmak için siyah artı işaretli yeşil düğmeye ve uzaklaştırmak için de eksi işaretli düğmeye hızla tıklayın; bitişik haritalar için yeşil okları kullanın.


METAR-TAF: